Česky Dansk Deutsch English Español Suomi Français Magyar Italiano Nederlands norsk Polski Português svenska Türkçe

 

Het Weer

Mbandaka (Congo, The Democratic Republic of the)

10:00, 8 mei 2012 (GMT)

NWNNE
WE
SWSSE
Home            
Mbandaka Impfondo Inongo Boende Makoua Ouesso Gamboma M'Pouya Bandundu Gemena Djambala Bangui Mekambo Souanke Berberati Ilebo Kenge Kikwit Franceville / Mvengue Moanda Brazzaville / Maya-Maya Bossembele Kinshasa / N'Djili

Om een weerknop op uw website of weblog te plaatsen, copieer onderstaande code en plak die in uw pagina. In het eerste vakje staat HTML-code, in het tweede vakje UBB-code.


Add to Google

Details

Wind speed:2 bf, 6 kn, 3.1 m/s, 6.9 miles/h, 11.1 km/h
Wind direction:S, 180°
Visibility:Greater than 10000 m, 10 km, 32800 ft, 6.2 miles
Clouds:Aufgelockert bewölkt at 1100 ft, 335 m
Durchbrochene Bewölkung at 30000 ft, 9144 m
Temperature:28°C, 82°F
Gefühlte Temperatur:32°C, 90°F
Dew-point:25°C, 77°F
Atmospheric pressure:1012 hPa, 759.1 mmHg, 29.88 inHg, 0.999 atm
Relative humidity:83.8 %
METAR:FZEA 081000Z 18006KT 9999 SCT011 BKN300 28/25 Q1012 NOSIG

Snelkoppelingen

Actuele weersinformatie van de hele wereld. Voeg locaties toe met het plus (+) symbool. Deze snelkoppelingen kunnen worden toegevoegd aan Google.

Lid van de Technetium groep

website free tracking
StatCounter NetStat W3C Validator

17-07-2018 05:57:20
astro.technetium.be money.technetium.be phote.technetium.be tafeltennistafel.technetium.be www.ligfiets.net